createdAt,value
2023-05-10T00:00:18.547Z,7.60
2023-05-10T00:03:07.136Z,8.10
2023-05-10T00:05:35.475Z,9.90
2023-05-10T00:08:03.599Z,10.70
2023-05-10T00:10:32.025Z,8.40
2023-05-10T00:13:00.183Z,9.40
2023-05-10T00:15:28.354Z,9.60
2023-05-10T00:17:56.394Z,11.40
2023-05-10T00:20:24.401Z,8.90
2023-05-10T00:22:52.520Z,9.40
2023-05-10T00:25:22.585Z,8.20
2023-05-10T00:27:50.955Z,6.90
2023-05-10T00:30:20.202Z,7.60
2023-05-10T00:32:49.337Z,11.10
2023-05-10T00:35:17.728Z,12.20
2023-05-10T00:37:46.255Z,9.90
2023-05-10T00:40:15.005Z,9.40
2023-05-10T00:42:44.400Z,7.90
2023-05-10T00:45:12.751Z,6.30
2023-05-10T00:47:40.961Z,7.80
2023-05-10T00:50:10.347Z,8.10
2023-05-10T00:52:38.481Z,9.70
2023-05-10T00:55:07.812Z,7.80
2023-05-10T00:57:36.127Z,6.70
2023-05-10T01:00:04.884Z,6.30
2023-05-10T01:02:35.319Z,7.90
2023-05-10T01:05:07.328Z,7.20
2023-05-10T01:07:35.434Z,6.50
2023-05-10T01:10:03.662Z,8.80
2023-05-10T01:12:31.806Z,7.90
2023-05-10T01:15:02.123Z,6.50
2023-05-10T01:17:31.043Z,9.10
2023-05-10T01:19:59.144Z,6.30
2023-05-10T01:22:33.194Z,9.50
2023-05-10T01:25:38.236Z,7.00
2023-05-10T01:28:18.706Z,7.90
2023-05-10T01:31:18.047Z,9.20
2023-05-10T01:34:05.822Z,6.70
2023-05-10T01:36:44.073Z,9.50
2023-05-10T01:39:55.644Z,8.60
2023-05-10T01:42:30.583Z,6.80
2023-05-10T01:45:28.611Z,5.30
2023-05-10T01:48:15.194Z,6.20
2023-05-10T01:50:46.195Z,15.10
2023-05-10T01:53:19.158Z,11.20
2023-05-10T01:55:53.706Z,7.80
2023-05-10T01:58:26.477Z,9.10
2023-05-10T02:00:55.928Z,7.60
2023-05-10T02:03:26.508Z,7.90
2023-05-10T02:05:56.321Z,7.80
2023-05-10T02:08:25.745Z,9.10
2023-05-10T02:10:57.280Z,9.80
2023-05-10T02:13:28.586Z,6.30
2023-05-10T02:15:58.735Z,7.20
2023-05-10T02:18:28.865Z,7.30
2023-05-10T02:20:58.861Z,8.70
2023-05-10T02:23:27.808Z,7.50
2023-05-10T02:25:58.046Z,23.30
2023-05-10T02:28:28.042Z,20.70
2023-05-10T02:30:57.884Z,17.50
2023-05-10T02:33:27.916Z,14.20
2023-05-10T02:35:57.042Z,8.70
2023-05-10T02:38:26.911Z,11.60
2023-05-10T02:40:56.666Z,17.80
2023-05-10T02:43:25.914Z,14.20
2023-05-10T02:45:54.154Z,8.20
2023-05-10T02:48:22.368Z,18.10
2023-05-10T02:50:53.465Z,19.10
2023-05-10T02:53:29.740Z,17.20
2023-05-10T02:56:01.931Z,20.90
2023-05-10T02:58:30.089Z,11.20
2023-05-10T03:00:58.211Z,12.10
2023-05-10T03:03:26.330Z,9.50
2023-05-10T03:05:57.764Z,9.80
2023-05-10T03:08:26.487Z,9.10
2023-05-10T03:14:17.826Z,16.70
2023-05-10T03:16:58.675Z,13.50
2023-05-10T03:19:48.596Z,18.60
2023-05-10T03:22:33.466Z,19.70
2023-05-10T03:25:07.242Z,8.60
2023-05-10T03:27:37.686Z,9.00
2023-05-10T03:30:09.006Z,10.60
2023-05-10T03:32:38.204Z,11.20
2023-05-10T03:37:41.458Z,21.90
2023-05-10T03:40:11.109Z,16.00
2023-05-10T03:42:40.294Z,14.20
2023-05-10T03:45:09.228Z,18.40
2023-05-10T03:47:37.297Z,10.60
2023-05-10T03:50:06.584Z,19.30
2023-05-10T03:52:34.679Z,18.00
2023-05-10T03:55:04.762Z,40.10
2023-05-10T03:57:33.332Z,21.10
2023-05-10T04:00:01.773Z,18.00
2023-05-10T04:02:31.213Z,12.20
2023-05-10T04:04:59.391Z,28.60
2023-05-10T04:07:27.418Z,24.40
2023-05-10T04:09:55.449Z,21.50
2023-05-10T04:12:24.067Z,27.20
2023-05-10T04:14:52.273Z,23.50
2023-05-10T04:17:20.356Z,27.80
2023-05-10T04:19:48.414Z,22.70
2023-05-10T04:22:17.246Z,26.10
2023-05-10T04:27:13.177Z,23.20
2023-05-10T04:29:41.292Z,23.80
2023-05-10T04:32:11.213Z,12.40
2023-05-10T04:34:39.357Z,12.70
2023-05-10T04:37:08.675Z,7.50
2023-05-10T04:39:36.906Z,6.50
2023-05-10T04:42:06.876Z,12.40
2023-05-10T04:44:34.928Z,8.90
2023-05-10T04:47:04.065Z,10.40
2023-05-10T04:49:32.067Z,11.00
2023-05-10T04:52:00.182Z,11.90
2023-05-10T04:54:28.311Z,11.80
2023-05-10T04:56:56.327Z,10.30
2023-05-10T04:59:24.348Z,9.40
2023-05-10T05:01:52.413Z,8.60
2023-05-10T05:04:20.591Z,7.30
2023-05-10T05:06:48.710Z,19.20
2023-05-10T05:09:17.533Z,19.50
2023-05-10T05:11:45.554Z,22.00
2023-05-10T05:14:13.569Z,11.60
2023-05-10T05:16:41.652Z,11.10
2023-05-10T05:19:09.811Z,12.10
2023-05-10T05:21:37.930Z,11.60
2023-05-10T05:24:06.792Z,11.10
2023-05-10T05:26:35.070Z,12.70
2023-05-10T05:29:03.095Z,16.20
2023-05-10T05:31:31.670Z,11.60
2023-05-10T05:36:27.651Z,7.90
2023-05-10T05:38:56.070Z,13.20
2023-05-10T05:41:25.697Z,8.00
2023-05-10T05:43:54.015Z,15.20
2023-05-10T05:46:22.084Z,24.90
2023-05-10T05:48:50.159Z,11.70
2023-05-10T05:51:18.374Z,10.90
2023-05-10T05:53:46.394Z,24.50
2023-05-10T05:56:14.617Z,27.40
2023-05-10T05:58:42.644Z,25.90
2023-05-10T06:01:10.657Z,12.60
2023-05-10T06:03:38.782Z,11.70
2023-05-10T06:06:06.902Z,6.60
2023-05-10T06:08:35.228Z,8.70
2023-05-10T06:11:05.166Z,7.40
2023-05-10T06:13:34.541Z,12.30
2023-05-10T06:16:04.195Z,7.50
2023-05-10T06:18:32.614Z,13.90
2023-05-10T06:21:01.036Z,9.70
2023-05-10T06:23:29.002Z,5.80
2023-05-10T06:25:57.074Z,6.80
2023-05-10T06:28:25.200Z,8.00
2023-05-10T06:30:53.435Z,6.00
2023-05-10T06:33:21.554Z,9.50
2023-05-10T06:35:49.652Z,6.70
2023-05-10T06:38:17.874Z,7.50
2023-05-10T06:40:45.910Z,5.00
2023-05-10T06:43:14.015Z,8.20
2023-05-10T06:45:42.232Z,6.60
2023-05-10T06:48:10.422Z,7.30
2023-05-10T06:50:38.876Z,5.20
2023-05-10T06:53:06.997Z,6.20
2023-05-10T06:55:35.015Z,8.90
2023-05-10T06:58:03.332Z,6.40
2023-05-10T07:00:31.484Z,12.90
2023-05-10T07:02:59.866Z,16.80
2023-05-10T07:05:29.295Z,5.70
2023-05-10T07:07:57.593Z,6.20
2023-05-10T07:10:25.847Z,11.10
2023-05-10T07:12:54.214Z,9.20
2023-05-10T07:15:22.594Z,6.30
2023-05-10T07:17:50.749Z,11.00
2023-05-10T07:20:19.121Z,5.20
2023-05-10T07:22:47.153Z,7.70
2023-05-10T07:25:15.366Z,4.70
2023-05-10T07:27:43.882Z,4.80
2023-05-10T07:30:12.812Z,5.00
2023-05-10T07:32:43.019Z,4.10
2023-05-10T07:35:11.352Z,3.60
2023-05-10T07:37:39.372Z,4.20
2023-05-10T07:40:08.408Z,3.10
2023-05-10T07:42:36.414Z,5.70
2023-05-10T07:45:05.146Z,4.80
2023-05-10T07:47:33.195Z,3.20
2023-05-10T07:50:01.580Z,3.70
2023-05-10T07:52:29.701Z,5.00
2023-05-10T07:54:58.116Z,3.00
2023-05-10T07:57:26.240Z,3.80
2023-05-10T07:59:54.354Z,2.50
2023-05-10T08:02:22.417Z,4.00
2023-05-10T08:04:50.597Z,4.60
2023-05-10T08:07:18.713Z,7.20
2023-05-10T08:09:47.539Z,6.70
2023-05-10T08:12:15.757Z,2.60
2023-05-10T08:14:44.077Z,5.50
2023-05-10T08:17:12.297Z,6.40
2023-05-10T08:19:40.720Z,4.30
2023-05-10T08:24:39.480Z,3.10
2023-05-10T08:27:07.499Z,4.10
2023-05-10T08:29:49.059Z,4.70
2023-05-10T08:32:18.677Z,3.40
2023-05-10T08:34:46.702Z,7.20
2023-05-10T08:37:14.783Z,4.70
2023-05-10T08:39:42.941Z,3.70
2023-05-10T08:42:11.157Z,10.40
2023-05-10T08:44:39.716Z,5.00
2023-05-10T08:47:08.498Z,5.10
2023-05-10T08:49:38.830Z,4.90
2023-05-10T08:52:08.462Z,5.80
2023-05-10T08:54:37.681Z,19.80
2023-05-10T08:57:06.200Z,5.50
2023-05-10T08:59:34.429Z,6.40
2023-05-10T09:02:03.204Z,10.90
2023-05-10T09:04:32.460Z,3.00
2023-05-10T09:07:00.695Z,5.70
2023-05-10T09:09:29.412Z,3.90
2023-05-10T09:11:58.026Z,4.30
2023-05-10T09:14:27.056Z,3.30
2023-05-10T09:16:56.484Z,6.60
2023-05-10T09:19:24.926Z,2.70
2023-05-10T09:21:52.917Z,2.60
2023-05-10T09:24:26.063Z,4.80
2023-05-10T09:26:54.075Z,4.10
2023-05-10T09:29:23.501Z,4.20
2023-05-10T09:31:55.445Z,7.10
2023-05-10T09:34:33.998Z,4.30
2023-05-10T09:37:05.465Z,3.70
2023-05-10T09:39:33.653Z,2.10
2023-05-10T09:42:07.206Z,2.70
2023-05-10T09:44:36.106Z,3.20
2023-05-10T09:47:04.823Z,2.50
2023-05-10T09:49:34.340Z,5.60
2023-05-10T09:52:07.612Z,7.60
2023-05-10T09:54:36.322Z,10.20
2023-05-10T09:57:04.552Z,2.80
2023-05-10T09:59:35.981Z,5.50
2023-05-10T10:02:04.526Z,3.20
2023-05-10T10:04:33.109Z,3.50
2023-05-10T10:07:03.850Z,5.60
2023-05-10T10:09:33.175Z,3.10
2023-05-10T10:12:03.063Z,7.70
2023-05-10T10:14:31.544Z,2.80
2023-05-10T10:19:36.597Z,5.00
2023-05-10T10:22:05.721Z,4.50
2023-05-10T10:24:34.127Z,4.20
2023-05-10T10:27:16.797Z,4.60
2023-05-10T10:30:10.202Z,3.70
2023-05-10T10:33:13.556Z,7.30
2023-05-10T10:35:55.217Z,2.60
2023-05-10T10:38:24.037Z,2.50
2023-05-10T10:41:11.095Z,5.10
2023-05-10T10:43:39.149Z,4.00
2023-05-10T10:46:18.773Z,3.30
2023-05-10T10:49:09.201Z,2.00
2023-05-10T10:51:40.984Z,5.60
2023-05-10T10:54:13.083Z,3.60
2023-05-10T10:56:41.088Z,4.90
2023-05-10T10:59:09.512Z,5.60
2023-05-10T11:01:37.624Z,5.90
2023-05-10T11:04:05.789Z,3.60
2023-05-10T11:06:36.819Z,2.60
2023-05-10T11:09:13.493Z,11.30
2023-05-10T11:11:56.314Z,4.50
2023-05-10T11:14:25.422Z,5.00
2023-05-10T11:16:53.653Z,3.40
2023-05-10T11:22:12.354Z,4.10
2023-05-10T11:24:40.787Z,8.80
2023-05-10T11:27:09.299Z,3.40
2023-05-10T11:29:37.330Z,3.70
2023-05-10T11:32:09.259Z,3.40
2023-05-10T11:34:37.388Z,4.80
2023-05-10T11:37:05.393Z,4.00
2023-05-10T11:39:34.607Z,2.80
2023-05-10T11:42:03.045Z,4.90
2023-05-10T11:44:32.657Z,4.50
2023-05-10T11:47:02.396Z,4.10
2023-05-10T11:49:31.192Z,4.00
2023-05-10T11:52:09.405Z,3.60
2023-05-10T11:54:37.489Z,2.90
2023-05-10T11:57:05.509Z,3.90
2023-05-10T11:59:33.633Z,2.70
2023-05-10T12:02:02.061Z,4.80
2023-05-10T12:04:31.342Z,3.50
2023-05-10T12:06:59.796Z,3.00
2023-05-10T12:12:17.408Z,5.70
2023-05-10T12:14:50.245Z,2.20
2023-05-10T12:17:18.264Z,5.40
2023-05-10T12:19:46.294Z,5.70
2023-05-10T12:22:14.403Z,5.20
2023-05-10T12:24:42.421Z,4.30
2023-05-10T12:27:10.436Z,4.10
2023-05-10T12:29:45.652Z,2.60
2023-05-10T12:32:13.843Z,5.30
2023-05-10T12:34:41.938Z,8.80
2023-05-10T12:37:10.095Z,6.10
2023-05-10T12:39:45.869Z,4.50
2023-05-10T12:42:14.016Z,3.90
2023-05-10T12:44:42.036Z,2.90
2023-05-10T12:47:10.065Z,4.20
2023-05-10T12:49:38.177Z,5.40
2023-05-10T12:52:06.312Z,3.80
2023-05-10T12:54:34.322Z,5.30
2023-05-10T12:57:02.334Z,3.60
2023-05-10T12:59:30.358Z,3.00
2023-05-10T13:01:58.990Z,5.70
2023-05-10T13:04:27.065Z,3.30
2023-05-10T13:06:59.910Z,3.30
2023-05-10T13:09:30.507Z,4.00
2023-05-10T13:11:58.904Z,6.60
2023-05-10T13:14:27.845Z,4.30
2023-05-10T13:16:55.999Z,4.50
2023-05-10T13:21:52.063Z,3.60
2023-05-10T13:24:20.382Z,2.60
2023-05-10T13:29:18.530Z,2.90
2023-05-10T13:31:46.882Z,3.50
2023-05-10T13:34:14.928Z,3.10
2023-05-10T13:36:43.189Z,4.10
2023-05-10T13:39:11.204Z,3.30
2023-05-10T13:41:39.540Z,2.80
2023-05-10T13:46:35.934Z,2.80
2023-05-10T13:49:04.002Z,3.00
2023-05-10T13:51:32.834Z,2.70
2023-05-10T13:54:00.935Z,3.70
2023-05-10T13:56:29.056Z,3.60
2023-05-10T13:59:00.590Z,5.60
2023-05-10T14:01:28.890Z,4.70
2023-05-10T14:03:57.157Z,6.00
2023-05-10T14:06:25.247Z,6.60
2023-05-10T14:08:53.568Z,5.50
2023-05-10T14:13:52.516Z,2.70
2023-05-10T14:16:21.413Z,5.00
2023-05-10T14:18:49.724Z,3.90
2023-05-10T14:21:18.079Z,4.50
2023-05-10T14:23:45.999Z,3.00
2023-05-10T14:26:14.017Z,4.40
2023-05-10T14:28:42.169Z,3.80
2023-05-10T14:31:10.257Z,4.70
2023-05-10T14:33:38.280Z,2.50
2023-05-10T14:36:07.327Z,2.70
2023-05-10T14:38:35.525Z,4.60
2023-05-10T14:41:03.655Z,2.70
2023-05-10T14:43:32.218Z,4.80
2023-05-10T14:46:00.408Z,2.80
2023-05-10T14:48:28.602Z,2.20
2023-05-10T14:50:56.922Z,4.90
2023-05-10T14:55:53.474Z,3.10
2023-05-10T14:58:21.483Z,7.90
2023-05-10T15:00:49.916Z,2.70
2023-05-10T15:03:18.553Z,3.30
2023-05-10T15:05:47.658Z,5.10
2023-05-10T15:08:15.662Z,3.00
2023-05-10T15:10:44.109Z,5.00
2023-05-10T15:15:40.037Z,5.60
2023-05-10T15:18:08.091Z,3.40
2023-05-10T15:20:36.264Z,2.90
2023-05-10T15:23:04.384Z,4.60
2023-05-10T15:25:35.417Z,4.10
2023-05-10T15:28:04.313Z,5.20
2023-05-10T15:30:32.478Z,3.10
2023-05-10T15:33:00.629Z,5.40
2023-05-10T15:35:29.001Z,4.50
2023-05-10T15:37:57.031Z,5.10
2023-05-10T15:40:25.042Z,5.40
2023-05-10T15:42:53.170Z,7.40
2023-05-10T15:45:21.477Z,6.40
2023-05-10T15:47:49.517Z,4.40
2023-05-10T15:50:17.823Z,5.20
2023-05-10T15:52:45.942Z,4.90
2023-05-10T15:55:14.433Z,12.00
2023-05-10T15:57:43.951Z,21.50
2023-05-10T16:00:13.423Z,21.60
2023-05-10T16:02:42.273Z,20.80
2023-05-10T16:05:11.166Z,17.50
2023-05-10T16:07:40.409Z,7.70
2023-05-10T16:10:10.621Z,7.50
2023-05-10T16:12:39.431Z,8.60
2023-05-10T16:15:08.941Z,4.30
2023-05-10T16:17:37.698Z,4.40
2023-05-10T16:20:07.106Z,4.80
2023-05-10T16:22:36.033Z,6.50
2023-05-10T16:25:04.750Z,14.90
2023-05-10T16:27:33.741Z,11.70
2023-05-10T16:30:02.214Z,13.50
2023-05-10T16:32:30.430Z,8.50
2023-05-10T16:34:59.536Z,6.70
2023-05-10T16:37:28.361Z,8.20
2023-05-10T16:39:56.394Z,5.70
2023-05-10T16:42:25.303Z,4.90
2023-05-10T16:44:54.762Z,5.40
2023-05-10T16:47:23.426Z,4.90
2023-05-10T16:49:51.667Z,4.20
2023-05-10T16:52:19.697Z,5.70
2023-05-10T16:54:47.706Z,4.90
2023-05-10T16:57:15.924Z,4.20
2023-05-10T16:59:44.047Z,4.20
2023-05-10T17:02:12.685Z,4.50
2023-05-10T17:04:42.898Z,3.80
2023-05-10T17:07:11.218Z,4.00
2023-05-10T17:09:40.137Z,5.80
2023-05-10T17:12:08.274Z,3.90
2023-05-10T17:14:38.242Z,4.90
2023-05-10T17:17:07.055Z,5.20
2023-05-10T17:19:35.125Z,5.40
2023-05-10T17:22:03.149Z,4.60
2023-05-10T17:24:31.368Z,8.60
2023-05-10T17:27:00.819Z,3.80
2023-05-10T17:29:29.337Z,5.50
2023-05-10T17:34:25.653Z,5.40
2023-05-10T17:36:53.871Z,3.80
2023-05-10T17:39:21.909Z,3.70
2023-05-10T17:41:50.013Z,5.80
2023-05-10T17:44:18.034Z,8.60
2023-05-10T17:46:46.055Z,5.40
2023-05-10T17:49:14.190Z,5.00
2023-05-10T17:51:44.207Z,6.30
2023-05-10T17:54:12.315Z,5.80
2023-05-10T17:56:41.087Z,7.40
2023-05-10T17:59:09.164Z,9.20
2023-05-10T18:01:37.330Z,17.40
2023-05-10T18:04:06.291Z,13.80
2023-05-10T18:06:38.358Z,14.40
2023-05-10T18:09:07.411Z,9.30
2023-05-10T18:11:36.876Z,6.80
2023-05-10T18:14:04.918Z,6.50
2023-05-10T18:16:33.036Z,7.60
2023-05-10T18:19:01.282Z,7.80
2023-05-10T18:21:29.461Z,11.20
2023-05-10T18:23:57.775Z,18.90
2023-05-10T18:26:26.403Z,11.70
2023-05-10T18:31:22.469Z,49.40
2023-05-10T18:33:50.677Z,22.80
2023-05-10T18:36:18.682Z,22.80
2023-05-10T18:38:46.803Z,15.60
2023-05-10T18:41:15.246Z,17.20
2023-05-10T18:43:43.443Z,14.70
2023-05-10T18:46:11.504Z,10.30
2023-05-10T18:48:40.815Z,10.30
2023-05-10T18:51:09.008Z,5.80
2023-05-10T18:53:37.334Z,10.20
2023-05-10T18:56:05.849Z,8.50
2023-05-10T18:58:35.910Z,4.40
2023-05-10T19:01:04.204Z,4.80
2023-05-10T19:03:32.219Z,5.00
2023-05-10T19:06:00.541Z,5.00
2023-05-10T19:08:28.658Z,4.50
2023-05-10T19:10:56.677Z,6.30
2023-05-10T19:13:24.998Z,5.40
2023-05-10T19:16:11.238Z,6.50
2023-05-10T19:18:40.210Z,5.90
2023-05-10T19:21:10.735Z,6.60
2023-05-10T19:23:40.396Z,5.20
2023-05-10T19:26:10.913Z,4.30
2023-05-10T19:28:39.112Z,5.60
2023-05-10T19:31:07.576Z,6.60
2023-05-10T19:33:36.255Z,4.50
2023-05-10T19:36:04.610Z,7.10
2023-05-10T19:38:33.890Z,4.90
2023-05-10T19:41:02.037Z,4.60
2023-05-10T19:43:34.239Z,8.00
2023-05-10T19:46:03.575Z,5.30
2023-05-10T19:48:32.300Z,4.30
2023-05-10T19:53:30.367Z,6.50
2023-05-10T19:56:06.449Z,7.20
2023-05-10T19:58:34.511Z,15.10
2023-05-10T20:01:02.802Z,12.90
2023-05-10T20:03:31.076Z,9.80
2023-05-10T20:05:59.280Z,8.10
2023-05-10T20:08:27.807Z,7.30
2023-05-10T20:10:59.233Z,5.30
2023-05-10T20:13:27.357Z,7.00
2023-05-10T20:15:57.074Z,6.10
2023-05-10T20:18:26.328Z,6.10
2023-05-10T20:20:56.170Z,9.10
2023-05-10T20:23:24.434Z,9.40
2023-05-10T20:25:52.957Z,20.50
2023-05-10T20:28:23.199Z,17.10
2023-05-10T20:30:54.027Z,18.00
2023-05-10T20:33:23.035Z,17.80
2023-05-10T20:35:52.561Z,14.00
2023-05-10T20:38:21.599Z,13.90
2023-05-10T20:40:49.602Z,22.40
2023-05-10T20:43:18.952Z,18.70
2023-05-10T20:45:47.768Z,21.90
2023-05-10T20:48:16.094Z,26.10
2023-05-10T20:50:44.090Z,41.00
2023-05-10T20:53:12.111Z,27.80
2023-05-10T20:55:40.231Z,38.40
2023-05-10T20:58:08.249Z,40.00
2023-05-10T21:00:36.271Z,39.60
2023-05-10T21:03:04.796Z,46.30
2023-05-10T21:08:00.932Z,51.20
2023-05-10T21:10:28.944Z,63.00
2023-05-10T21:12:57.070Z,55.60
2023-05-10T21:15:25.792Z,57.10
2023-05-10T21:20:23.643Z,45.70
2023-05-10T21:22:51.772Z,37.60
2023-05-10T21:25:19.781Z,35.30
2023-05-10T21:27:47.994Z,27.80
2023-05-10T21:30:16.421Z,29.50
2023-05-10T21:35:12.701Z,34.70
2023-05-10T21:37:40.783Z,36.50
2023-05-10T21:40:09.505Z,36.80
2023-05-10T21:45:06.245Z,41.80
2023-05-10T21:50:02.288Z,34.30
2023-05-10T21:52:30.302Z,35.10
2023-05-10T21:54:58.326Z,31.10
2023-05-10T21:57:26.548Z,23.00
2023-05-10T21:59:54.574Z,16.90
